sensor_id;sensor_type;location;lat;lon;timestamp;P1;durP1;ratioP1;P2;durP2;ratioP2
75073;SDS011;63652;51.526;5.080;2023-04-06T00:00:47;17.40;;;8.95;;
75073;SDS011;63652;51.526;5.080;2023-04-06T00:03:13;18.45;;;9.02;;
75073;SDS011;63652;51.526;5.080;2023-04-06T00:05:39;18.50;;;9.15;;
75073;SDS011;63652;51.526;5.080;2023-04-06T00:08:04;20.20;;;9.40;;
75073;SDS011;63652;51.526;5.080;2023-04-06T00:10:30;17.02;;;7.75;;
75073;SDS011;63652;51.526;5.080;2023-04-06T00:12:55;17.08;;;8.80;;
75073;SDS011;63652;51.526;5.080;2023-04-06T00:15:22;20.08;;;10.45;;
75073;SDS011;63652;51.526;5.080;2023-04-06T00:17:48;16.38;;;8.75;;
75073;SDS011;63652;51.526;5.080;2023-04-06T00:20:14;19.48;;;8.52;;
75073;SDS011;63652;51.526;5.080;2023-04-06T00:22:42;16.02;;;8.05;;
75073;SDS011;63652;51.526;5.080;2023-04-06T00:25:08;21.80;;;9.23;;
75073;SDS011;63652;51.526;5.080;2023-04-06T00:27:35;16.88;;;8.52;;
75073;SDS011;63652;51.526;5.080;2023-04-06T00:30:01;19.00;;;9.70;;
75073;SDS011;63652;51.526;5.080;2023-04-06T00:32:27;22.67;;;9.32;;
75073;SDS011;63652;51.526;5.080;2023-04-06T00:34:52;17.67;;;9.45;;
75073;SDS011;63652;51.526;5.080;2023-04-06T00:37:18;18.05;;;8.55;;
75073;SDS011;63652;51.526;5.080;2023-04-06T00:39:44;16.75;;;8.18;;
75073;SDS011;63652;51.526;5.080;2023-04-06T00:42:13;15.32;;;8.80;;
75073;SDS011;63652;51.526;5.080;2023-04-06T00:44:39;17.92;;;9.55;;
75073;SDS011;63652;51.526;5.080;2023-04-06T00:47:07;16.73;;;8.90;;
75073;SDS011;63652;51.526;5.080;2023-04-06T00:49:33;17.95;;;8.85;;
75073;SDS011;63652;51.526;5.080;2023-04-06T00:51:59;18.83;;;9.25;;
75073;SDS011;63652;51.526;5.080;2023-04-06T00:54:24;18.10;;;8.88;;
75073;SDS011;63652;51.526;5.080;2023-04-06T00:56:50;19.13;;;8.80;;
75073;SDS011;63652;51.526;5.080;2023-04-06T00:59:19;15.18;;;8.35;;
75073;SDS011;63652;51.526;5.080;2023-04-06T01:01:44;17.38;;;8.27;;
75073;SDS011;63652;51.526;5.080;2023-04-06T01:04:13;17.13;;;9.07;;
75073;SDS011;63652;51.526;5.080;2023-04-06T01:06:38;17.45;;;9.18;;
75073;SDS011;63652;51.526;5.080;2023-04-06T01:09:06;16.30;;;9.93;;
75073;SDS011;63652;51.526;5.080;2023-04-06T01:11:32;18.45;;;9.00;;
75073;SDS011;63652;51.526;5.080;2023-04-06T01:14:00;16.52;;;9.00;;
75073;SDS011;63652;51.526;5.080;2023-04-06T01:16:25;16.58;;;9.85;;
75073;SDS011;63652;51.526;5.080;2023-04-06T01:18:51;17.60;;;8.93;;
75073;SDS011;63652;51.526;5.080;2023-04-06T01:21:16;19.27;;;8.90;;
75073;SDS011;63652;51.526;5.080;2023-04-06T01:23:43;19.83;;;9.95;;
75073;SDS011;63652;51.526;5.080;2023-04-06T01:26:13;18.45;;;9.88;;
75073;SDS011;63652;51.526;5.080;2023-04-06T01:28:38;17.90;;;9.77;;
75073;SDS011;63652;51.526;5.080;2023-04-06T01:31:07;20.77;;;10.32;;
75073;SDS011;63652;51.526;5.080;2023-04-06T01:33:33;20.80;;;10.27;;
75073;SDS011;63652;51.526;5.080;2023-04-06T01:35:58;17.33;;;9.50;;
75073;SDS011;63652;51.526;5.080;2023-04-06T01:38:25;20.75;;;9.75;;
75073;SDS011;63652;51.526;5.080;2023-04-06T01:40:51;19.05;;;9.18;;
75073;SDS011;63652;51.526;5.080;2023-04-06T01:43:17;20.23;;;10.73;;
75073;SDS011;63652;51.526;5.080;2023-04-06T01:45:45;19.17;;;9.77;;
75073;SDS011;63652;51.526;5.080;2023-04-06T01:48:11;20.52;;;10.07;;
75073;SDS011;63652;51.526;5.080;2023-04-06T01:50:36;17.90;;;9.25;;
75073;SDS011;63652;51.526;5.080;2023-04-06T01:53:01;16.30;;;8.88;;
75073;SDS011;63652;51.526;5.080;2023-04-06T01:55:27;20.05;;;10.05;;
75073;SDS011;63652;51.526;5.080;2023-04-06T01:57:52;17.27;;;9.90;;
75073;SDS011;63652;51.526;5.080;2023-04-06T02:00:18;16.67;;;9.27;;
75073;SDS011;63652;51.526;5.080;2023-04-06T02:02:43;18.50;;;10.27;;
75073;SDS011;63652;51.526;5.080;2023-04-06T02:05:09;22.83;;;10.93;;
75073;SDS011;63652;51.526;5.080;2023-04-06T02:07:34;16.13;;;9.15;;
75073;SDS011;63652;51.526;5.080;2023-04-06T02:10:00;18.90;;;10.70;;
75073;SDS011;63652;51.526;5.080;2023-04-06T02:12:25;17.98;;;9.27;;
75073;SDS011;63652;51.526;5.080;2023-04-06T02:14:50;19.55;;;10.07;;
75073;SDS011;63652;51.526;5.080;2023-04-06T02:17:16;18.00;;;9.68;;
75073;SDS011;63652;51.526;5.080;2023-04-06T02:19:42;21.15;;;10.60;;
75073;SDS011;63652;51.526;5.080;2023-04-06T02:22:07;14.68;;;8.80;;
75073;SDS011;63652;51.526;5.080;2023-04-06T02:24:32;18.70;;;10.00;;
75073;SDS011;63652;51.526;5.080;2023-04-06T02:26:58;23.90;;;10.77;;
75073;SDS011;63652;51.526;5.080;2023-04-06T02:29:24;19.95;;;10.98;;
75073;SDS011;63652;51.526;5.080;2023-04-06T02:31:50;20.40;;;9.93;;
75073;SDS011;63652;51.526;5.080;2023-04-06T02:34:15;19.77;;;10.88;;
75073;SDS011;63652;51.526;5.080;2023-04-06T02:36:45;16.27;;;9.85;;
75073;SDS011;63652;51.526;5.080;2023-04-06T02:39:11;19.75;;;10.23;;
75073;SDS011;63652;51.526;5.080;2023-04-06T02:41:38;23.40;;;10.98;;
75073;SDS011;63652;51.526;5.080;2023-04-06T02:44:03;22.80;;;10.10;;
75073;SDS011;63652;51.526;5.080;2023-04-06T02:46:29;19.20;;;10.25;;
75073;SDS011;63652;51.526;5.080;2023-04-06T02:48:54;16.95;;;9.75;;
75073;SDS011;63652;51.526;5.080;2023-04-06T02:51:20;21.33;;;10.93;;
75073;SDS011;63652;51.526;5.080;2023-04-06T02:53:45;23.10;;;10.35;;
75073;SDS011;63652;51.526;5.080;2023-04-06T02:56:11;20.48;;;10.30;;
75073;SDS011;63652;51.526;5.080;2023-04-06T02:58:36;20.80;;;10.75;;
75073;SDS011;63652;51.526;5.080;2023-04-06T03:01:02;19.65;;;9.52;;
75073;SDS011;63652;51.526;5.080;2023-04-06T03:03:28;21.13;;;10.02;;
75073;SDS011;63652;51.526;5.080;2023-04-06T03:05:53;21.38;;;9.32;;
75073;SDS011;63652;51.526;5.080;2023-04-06T03:08:19;18.35;;;9.80;;
75073;SDS011;63652;51.526;5.080;2023-04-06T03:10:45;20.90;;;9.70;;
75073;SDS011;63652;51.526;5.080;2023-04-06T03:13:10;20.83;;;10.18;;
75073;SDS011;63652;51.526;5.080;2023-04-06T03:15:36;22.55;;;10.57;;
75073;SDS011;63652;51.526;5.080;2023-04-06T03:18:03;23.33;;;10.63;;
75073;SDS011;63652;51.526;5.080;2023-04-06T03:20:28;21.77;;;10.27;;
75073;SDS011;63652;51.526;5.080;2023-04-06T03:22:53;19.33;;;10.00;;
75073;SDS011;63652;51.526;5.080;2023-04-06T03:25:19;20.63;;;10.23;;
75073;SDS011;63652;51.526;5.080;2023-04-06T03:27:44;19.63;;;10.68;;
75073;SDS011;63652;51.526;5.080;2023-04-06T03:30:10;19.00;;;9.48;;
75073;SDS011;63652;51.526;5.080;2023-04-06T03:32:35;24.02;;;10.52;;
75073;SDS011;63652;51.526;5.080;2023-04-06T03:35:01;20.95;;;10.80;;
75073;SDS011;63652;51.526;5.080;2023-04-06T03:37:26;19.27;;;9.57;;
75073;SDS011;63652;51.526;5.080;2023-04-06T03:39:51;23.80;;;10.93;;
75073;SDS011;63652;51.526;5.080;2023-04-06T03:42:17;19.45;;;10.73;;
75073;SDS011;63652;51.526;5.080;2023-04-06T03:44:42;20.73;;;9.95;;
75073;SDS011;63652;51.526;5.080;2023-04-06T03:47:08;22.65;;;10.80;;
75073;SDS011;63652;51.526;5.080;2023-04-06T03:49:33;22.15;;;10.27;;
75073;SDS011;63652;51.526;5.080;2023-04-06T03:51:58;19.27;;;10.15;;
75073;SDS011;63652;51.526;5.080;2023-04-06T03:54:24;21.92;;;10.43;;
75073;SDS011;63652;51.526;5.080;2023-04-06T03:56:49;17.98;;;10.27;;
75073;SDS011;63652;51.526;5.080;2023-04-06T03:59:15;19.75;;;10.68;;
75073;SDS011;63652;51.526;5.080;2023-04-06T04:01:41;20.30;;;9.52;;
75073;SDS011;63652;51.526;5.080;2023-04-06T04:04:06;19.33;;;10.40;;
75073;SDS011;63652;51.526;5.080;2023-04-06T04:06:31;18.67;;;9.68;;
75073;SDS011;63652;51.526;5.080;2023-04-06T04:08:57;21.48;;;9.43;;
75073;SDS011;63652;51.526;5.080;2023-04-06T04:11:22;18.17;;;9.25;;
75073;SDS011;63652;51.526;5.080;2023-04-06T04:13:48;19.92;;;9.48;;
75073;SDS011;63652;51.526;5.080;2023-04-06T04:16:13;19.05;;;9.65;;
75073;SDS011;63652;51.526;5.080;2023-04-06T04:18:38;18.67;;;9.80;;
75073;SDS011;63652;51.526;5.080;2023-04-06T04:21:04;19.45;;;9.98;;
75073;SDS011;63652;51.526;5.080;2023-04-06T04:23:29;22.40;;;9.98;;
75073;SDS011;63652;51.526;5.080;2023-04-06T04:25:55;21.35;;;9.88;;
75073;SDS011;63652;51.526;5.080;2023-04-06T04:28:20;21.02;;;10.05;;
75073;SDS011;63652;51.526;5.080;2023-04-06T04:30:46;24.42;;;10.68;;
75073;SDS011;63652;51.526;5.080;2023-04-06T04:33:11;18.73;;;9.77;;
75073;SDS011;63652;51.526;5.080;2023-04-06T04:35:36;20.77;;;9.57;;
75073;SDS011;63652;51.526;5.080;2023-04-06T04:38:02;19.77;;;9.13;;
75073;SDS011;63652;51.526;5.080;2023-04-06T04:40:27;20.50;;;9.60;;
75073;SDS011;63652;51.526;5.080;2023-04-06T04:42:53;23.25;;;9.82;;
75073;SDS011;63652;51.526;5.080;2023-04-06T04:45:18;21.98;;;9.80;;
75073;SDS011;63652;51.526;5.080;2023-04-06T04:47:43;19.17;;;9.50;;
75073;SDS011;63652;51.526;5.080;2023-04-06T04:50:09;16.88;;;9.13;;
75073;SDS011;63652;51.526;5.080;2023-04-06T04:52:35;20.35;;;10.77;;
75073;SDS011;63652;51.526;5.080;2023-04-06T04:55:01;20.70;;;10.05;;
75073;SDS011;63652;51.526;5.080;2023-04-06T04:57:27;17.95;;;9.10;;
75073;SDS011;63652;51.526;5.080;2023-04-06T04:59:52;20.35;;;10.00;;
75073;SDS011;63652;51.526;5.080;2023-04-06T05:02:17;24.25;;;11.02;;
75073;SDS011;63652;51.526;5.080;2023-04-06T05:04:43;18.23;;;9.35;;
75073;SDS011;63652;51.526;5.080;2023-04-06T05:07:08;22.13;;;9.63;;
75073;SDS011;63652;51.526;5.080;2023-04-06T05:09:34;21.30;;;9.65;;
75073;SDS011;63652;51.526;5.080;2023-04-06T05:12:00;20.05;;;9.02;;
75073;SDS011;63652;51.526;5.080;2023-04-06T05:14:26;18.85;;;10.15;;
75073;SDS011;63652;51.526;5.080;2023-04-06T05:16:51;19.90;;;8.63;;
75073;SDS011;63652;51.526;5.080;2023-04-06T05:19:17;23.10;;;11.43;;
75073;SDS011;63652;51.526;5.080;2023-04-06T05:21:43;22.17;;;10.00;;
75073;SDS011;63652;51.526;5.080;2023-04-06T05:24:08;23.80;;;10.77;;
75073;SDS011;63652;51.526;5.080;2023-04-06T05:26:34;18.40;;;9.02;;
75073;SDS011;63652;51.526;5.080;2023-04-06T05:29:00;21.48;;;9.85;;
75073;SDS011;63652;51.526;5.080;2023-04-06T05:31:31;26.55;;;9.75;;
75073;SDS011;63652;51.526;5.080;2023-04-06T05:33:56;22.55;;;10.48;;
75073;SDS011;63652;51.526;5.080;2023-04-06T05:36:22;21.70;;;8.18;;
75073;SDS011;63652;51.526;5.080;2023-04-06T05:38:47;17.48;;;9.50;;
75073;SDS011;63652;51.526;5.080;2023-04-06T05:41:15;21.63;;;9.65;;
75073;SDS011;63652;51.526;5.080;2023-04-06T05:43:40;22.58;;;9.43;;
75073;SDS011;63652;51.526;5.080;2023-04-06T05:46:07;19.85;;;9.90;;
75073;SDS011;63652;51.526;5.080;2023-04-06T05:48:32;19.30;;;10.10;;
75073;SDS011;63652;51.526;5.080;2023-04-06T05:50:57;22.77;;;9.18;;
75073;SDS011;63652;51.526;5.080;2023-04-06T05:53:23;19.88;;;9.02;;
75073;SDS011;63652;51.526;5.080;2023-04-06T05:55:51;18.35;;;9.57;;
75073;SDS011;63652;51.526;5.080;2023-04-06T05:58:16;19.33;;;9.00;;
75073;SDS011;63652;51.526;5.080;2023-04-06T06:00:42;22.88;;;8.82;;
75073;SDS011;63652;51.526;5.080;2023-04-06T06:03:07;21.27;;;10.15;;
75073;SDS011;63652;51.526;5.080;2023-04-06T06:05:33;22.35;;;10.00;;
75073;SDS011;63652;51.526;5.080;2023-04-06T06:07:59;23.77;;;10.30;;
75073;SDS011;63652;51.526;5.080;2023-04-06T06:10:27;26.23;;;12.43;;
75073;SDS011;63652;51.526;5.080;2023-04-06T06:12:52;28.27;;;12.32;;
75073;SDS011;63652;51.526;5.080;2023-04-06T06:15:18;26.15;;;12.00;;
75073;SDS011;63652;51.526;5.080;2023-04-06T06:17:43;25.10;;;11.02;;
75073;SDS011;63652;51.526;5.080;2023-04-06T06:20:08;27.10;;;11.73;;
75073;SDS011;63652;51.526;5.080;2023-04-06T06:22:34;23.60;;;10.10;;
75073;SDS011;63652;51.526;5.080;2023-04-06T06:25:00;23.60;;;10.93;;
75073;SDS011;63652;51.526;5.080;2023-04-06T06:27:25;23.60;;;11.52;;
75073;SDS011;63652;51.526;5.080;2023-04-06T06:29:51;24.73;;;10.93;;
75073;SDS011;63652;51.526;5.080;2023-04-06T06:32:16;22.50;;;10.63;;
75073;SDS011;63652;51.526;5.080;2023-04-06T06:34:42;26.67;;;12.88;;
75073;SDS011;63652;51.526;5.080;2023-04-06T06:37:08;22.17;;;11.35;;
75073;SDS011;63652;51.526;5.080;2023-04-06T06:39:33;22.35;;;9.98;;
75073;SDS011;63652;51.526;5.080;2023-04-06T06:41:59;25.25;;;12.23;;
75073;SDS011;63652;51.526;5.080;2023-04-06T06:44:27;23.35;;;11.98;;
75073;SDS011;63652;51.526;5.080;2023-04-06T06:46:53;22.63;;;11.07;;
75073;SDS011;63652;51.526;5.080;2023-04-06T06:49:19;23.73;;;10.10;;
75073;SDS011;63652;51.526;5.080;2023-04-06T06:51:44;27.65;;;12.68;;
75073;SDS011;63652;51.526;5.080;2023-04-06T06:54:11;25.00;;;11.70;;
75073;SDS011;63652;51.526;5.080;2023-04-06T06:56:37;20.85;;;10.90;;
75073;SDS011;63652;51.526;5.080;2023-04-06T06:59:03;26.13;;;12.02;;
75073;SDS011;63652;51.526;5.080;2023-04-06T07:01:29;20.70;;;11.80;;
75073;SDS011;63652;51.526;5.080;2023-04-06T07:03:54;26.23;;;12.30;;
75073;SDS011;63652;51.526;5.080;2023-04-06T07:06:20;20.98;;;11.02;;
75073;SDS011;63652;51.526;5.080;2023-04-06T07:08:46;24.58;;;11.00;;
75073;SDS011;63652;51.526;5.080;2023-04-06T07:11:11;21.70;;;10.65;;
75073;SDS011;63652;51.526;5.080;2023-04-06T07:13:36;23.35;;;11.15;;
75073;SDS011;63652;51.526;5.080;2023-04-06T07:16:02;23.95;;;11.45;;
75073;SDS011;63652;51.526;5.080;2023-04-06T07:18:27;21.98;;;10.63;;
75073;SDS011;63652;51.526;5.080;2023-04-06T07:20:53;19.58;;;10.75;;
75073;SDS011;63652;51.526;5.080;2023-04-06T07:23:18;23.27;;;10.75;;
75073;SDS011;63652;51.526;5.080;2023-04-06T07:25:44;21.40;;;9.98;;
75073;SDS011;63652;51.526;5.080;2023-04-06T07:28:09;21.42;;;10.73;;
75073;SDS011;63652;51.526;5.080;2023-04-06T07:30:36;22.98;;;10.52;;
75073;SDS011;63652;51.526;5.080;2023-04-06T07:33:02;25.02;;;10.93;;
75073;SDS011;63652;51.526;5.080;2023-04-06T07:35:27;20.42;;;10.25;;
75073;SDS011;63652;51.526;5.080;2023-04-06T07:37:55;19.45;;;8.88;;
75073;SDS011;63652;51.526;5.080;2023-04-06T07:40:20;31.02;;;10.73;;
75073;SDS011;63652;51.526;5.080;2023-04-06T07:42:46;22.60;;;10.95;;
75073;SDS011;63652;51.526;5.080;2023-04-06T07:45:11;20.90;;;9.85;;
75073;SDS011;63652;51.526;5.080;2023-04-06T07:47:37;21.33;;;10.32;;
75073;SDS011;63652;51.526;5.080;2023-04-06T07:50:02;19.35;;;9.82;;
75073;SDS011;63652;51.526;5.080;2023-04-06T07:52:28;20.17;;;10.75;;
75073;SDS011;63652;51.526;5.080;2023-04-06T07:54:53;23.90;;;10.63;;
75073;SDS011;63652;51.526;5.080;2023-04-06T07:57:19;19.38;;;10.18;;
75073;SDS011;63652;51.526;5.080;2023-04-06T07:59:44;28.42;;;10.45;;
75073;SDS011;63652;51.526;5.080;2023-04-06T08:02:10;29.13;;;10.70;;
75073;SDS011;63652;51.526;5.080;2023-04-06T08:04:35;20.98;;;10.27;;
75073;SDS011;63652;51.526;5.080;2023-04-06T08:07:01;24.45;;;10.48;;
75073;SDS011;63652;51.526;5.080;2023-04-06T08:09:26;22.83;;;10.25;;
75073;SDS011;63652;51.526;5.080;2023-04-06T08:11:52;21.23;;;10.80;;
75073;SDS011;63652;51.526;5.080;2023-04-06T08:14:18;22.85;;;11.32;;
75073;SDS011;63652;51.526;5.080;2023-04-06T08:16:43;22.00;;;10.30;;
75073;SDS011;63652;51.526;5.080;2023-04-06T08:19:08;22.60;;;10.88;;
75073;SDS011;63652;51.526;5.080;2023-04-06T08:21:37;23.85;;;10.32;;
75073;SDS011;63652;51.526;5.080;2023-04-06T08:24:03;23.15;;;11.68;;
75073;SDS011;63652;51.526;5.080;2023-04-06T08:26:28;20.17;;;9.98;;
75073;SDS011;63652;51.526;5.080;2023-04-06T08:28:54;24.02;;;10.02;;
75073;SDS011;63652;51.526;5.080;2023-04-06T08:31:20;20.42;;;10.30;;
75073;SDS011;63652;51.526;5.080;2023-04-06T08:33:46;21.58;;;10.68;;
75073;SDS011;63652;51.526;5.080;2023-04-06T08:36:13;21.98;;;10.73;;
75073;SDS011;63652;51.526;5.080;2023-04-06T08:38:39;21.73;;;10.48;;
75073;SDS011;63652;51.526;5.080;2023-04-06T08:41:09;24.67;;;11.50;;
75073;SDS011;63652;51.526;5.080;2023-04-06T08:43:49;19.95;;;10.52;;
75073;SDS011;63652;51.526;5.080;2023-04-06T08:46:15;21.30;;;11.30;;
75073;SDS011;63652;51.526;5.080;2023-04-06T08:48:41;24.00;;;11.43;;
75073;SDS011;63652;51.526;5.080;2023-04-06T08:51:08;19.20;;;10.30;;
75073;SDS011;63652;51.526;5.080;2023-04-06T08:53:34;19.63;;;11.18;;
75073;SDS011;63652;51.526;5.080;2023-04-06T08:55:59;30.88;;;11.73;;
75073;SDS011;63652;51.526;5.080;2023-04-06T08:58:27;27.58;;;11.93;;
75073;SDS011;63652;51.526;5.080;2023-04-06T09:00:53;18.63;;;9.88;;
75073;SDS011;63652;51.526;5.080;2023-04-06T09:03:19;23.45;;;11.27;;
75073;SDS011;63652;51.526;5.080;2023-04-06T09:05:45;21.60;;;11.13;;
75073;SDS011;63652;51.526;5.080;2023-04-06T09:08:11;18.42;;;10.45;;
75073;SDS011;63652;51.526;5.080;2023-04-06T09:10:40;22.73;;;10.55;;
75073;SDS011;63652;51.526;5.080;2023-04-06T09:13:06;21.52;;;9.57;;
75073;SDS011;63652;51.526;5.080;2023-04-06T09:15:31;20.77;;;9.73;;
75073;SDS011;63652;51.526;5.080;2023-04-06T09:17:57;18.42;;;8.85;;
75073;SDS011;63652;51.526;5.080;2023-04-06T09:20:23;18.52;;;9.27;;
75073;SDS011;63652;51.526;5.080;2023-04-06T09:22:51;16.92;;;8.65;;
75073;SDS011;63652;51.526;5.080;2023-04-06T09:25:20;15.35;;;8.52;;
75073;SDS011;63652;51.526;5.080;2023-04-06T09:27:47;16.23;;;9.02;;
75073;SDS011;63652;51.526;5.080;2023-04-06T09:30:14;16.75;;;8.25;;
75073;SDS011;63652;51.526;5.080;2023-04-06T09:32:48;13.43;;;7.35;;
75073;SDS011;63652;51.526;5.080;2023-04-06T09:35:15;16.40;;;6.95;;
75073;SDS011;63652;51.526;5.080;2023-04-06T09:37:44;15.18;;;8.02;;
75073;SDS011;63652;51.526;5.080;2023-04-06T09:40:09;13.52;;;7.65;;
75073;SDS011;63652;51.526;5.080;2023-04-06T09:42:35;14.65;;;7.47;;
75073;SDS011;63652;51.526;5.080;2023-04-06T09:45:04;16.42;;;8.20;;
75073;SDS011;63652;51.526;5.080;2023-04-06T09:47:33;15.57;;;7.47;;
75073;SDS011;63652;51.526;5.080;2023-04-06T09:50:01;14.88;;;7.57;;
75073;SDS011;63652;51.526;5.080;2023-04-06T09:52:30;14.40;;;7.00;;
75073;SDS011;63652;51.526;5.080;2023-04-06T09:55:02;15.68;;;7.32;;
75073;SDS011;63652;51.526;5.080;2023-04-06T09:57:30;14.30;;;6.75;;
75073;SDS011;63652;51.526;5.080;2023-04-06T10:00:01;13.68;;;7.03;;
75073;SDS011;63652;51.526;5.080;2023-04-06T10:05:46;14.82;;;7.30;;
75073;SDS011;63652;51.526;5.080;2023-04-06T10:08:12;15.75;;;6.85;;
75073;SDS011;63652;51.526;5.080;2023-04-06T10:10:38;16.20;;;8.48;;
75073;SDS011;63652;51.526;5.080;2023-04-06T10:13:04;16.38;;;7.15;;
75073;SDS011;63652;51.526;5.080;2023-04-06T10:15:30;15.73;;;8.20;;
75073;SDS011;63652;51.526;5.080;2023-04-06T10:17:56;18.98;;;8.52;;
75073;SDS011;63652;51.526;5.080;2023-04-06T10:20:31;16.77;;;7.97;;
75073;SDS011;63652;51.526;5.080;2023-04-06T10:23:13;17.25;;;7.93;;
75073;SDS011;63652;51.526;5.080;2023-04-06T10:25:51;17.48;;;7.70;;
75073;SDS011;63652;51.526;5.080;2023-04-06T10:28:20;13.63;;;7.18;;
75073;SDS011;63652;51.526;5.080;2023-04-06T10:30:45;17.73;;;8.15;;
75073;SDS011;63652;51.526;5.080;2023-04-06T10:33:18;20.67;;;9.27;;
75073;SDS011;63652;51.526;5.080;2023-04-06T10:35:45;17.10;;;7.88;;
75073;SDS011;63652;51.526;5.080;2023-04-06T10:38:10;16.85;;;8.30;;
75073;SDS011;63652;51.526;5.080;2023-04-06T10:40:39;16.20;;;8.00;;
75073;SDS011;63652;51.526;5.080;2023-04-06T10:45:33;14.10;;;7.05;;
75073;SDS011;63652;51.526;5.080;2023-04-06T10:47:59;17.52;;;8.55;;
75073;SDS011;63652;51.526;5.080;2023-04-06T10:50:25;16.52;;;8.18;;
75073;SDS011;63652;51.526;5.080;2023-04-06T10:53:00;12.82;;;6.20;;
75073;SDS011;63652;51.526;5.080;2023-04-06T10:55:30;12.77;;;7.50;;
75073;SDS011;63652;51.526;5.080;2023-04-06T10:57:55;16.02;;;7.53;;
75073;SDS011;63652;51.526;5.080;2023-04-06T11:00:21;15.65;;;7.72;;
75073;SDS011;63652;51.526;5.080;2023-04-06T11:02:46;15.07;;;7.45;;
75073;SDS011;63652;51.526;5.080;2023-04-06T11:05:13;17.48;;;8.48;;
75073;SDS011;63652;51.526;5.080;2023-04-06T11:07:39;16.15;;;7.30;;
75073;SDS011;63652;51.526;5.080;2023-04-06T11:10:05;15.73;;;7.13;;
75073;SDS011;63652;51.526;5.080;2023-04-06T11:12:31;14.15;;;7.43;;
75073;SDS011;63652;51.526;5.080;2023-04-06T11:15:00;13.43;;;7.38;;
75073;SDS011;63652;51.526;5.080;2023-04-06T11:17:34;14.05;;;6.65;;
75073;SDS011;63652;51.526;5.080;2023-04-06T11:22:26;14.88;;;7.47;;
75073;SDS011;63652;51.526;5.080;2023-04-06T11:24:52;16.88;;;7.40;;
75073;SDS011;63652;51.526;5.080;2023-04-06T11:27:18;14.10;;;6.25;;
75073;SDS011;63652;51.526;5.080;2023-04-06T11:29:44;14.20;;;7.68;;
75073;SDS011;63652;51.526;5.080;2023-04-06T11:32:19;20.77;;;9.10;;
75073;SDS011;63652;51.526;5.080;2023-04-06T11:34:46;16.27;;;8.68;;
75073;SDS011;63652;51.526;5.080;2023-04-06T11:37:12;15.98;;;8.57;;
75073;SDS011;63652;51.526;5.080;2023-04-06T11:39:59;16.10;;;8.93;;
75073;SDS011;63652;51.526;5.080;2023-04-06T11:42:27;16.20;;;8.90;;
75073;SDS011;63652;51.526;5.080;2023-04-06T11:44:55;20.50;;;8.63;;
75073;SDS011;63652;51.526;5.080;2023-04-06T11:47:28;17.35;;;8.52;;
75073;SDS011;63652;51.526;5.080;2023-04-06T11:50:07;19.02;;;9.20;;
75073;SDS011;63652;51.526;5.080;2023-04-06T11:52:39;23.27;;;9.52;;
75073;SDS011;63652;51.526;5.080;2023-04-06T11:55:12;15.93;;;8.48;;
75073;SDS011;63652;51.526;5.080;2023-04-06T11:57:39;16.65;;;8.82;;
75073;SDS011;63652;51.526;5.080;2023-04-06T12:00:06;16.98;;;8.75;;
75073;SDS011;63652;51.526;5.080;2023-04-06T12:02:36;19.23;;;9.13;;
75073;SDS011;63652;51.526;5.080;2023-04-06T12:05:04;19.13;;;9.10;;
75073;SDS011;63652;51.526;5.080;2023-04-06T12:07:31;16.10;;;8.48;;
75073;SDS011;63652;51.526;5.080;2023-04-06T12:09:58;16.08;;;8.52;;
75073;SDS011;63652;51.526;5.080;2023-04-06T12:12:23;16.88;;;8.48;;
75073;SDS011;63652;51.526;5.080;2023-04-06T12:14:49;16.67;;;8.50;;
75073;SDS011;63652;51.526;5.080;2023-04-06T12:17:14;17.83;;;8.77;;
75073;SDS011;63652;51.526;5.080;2023-04-06T12:19:40;14.45;;;8.52;;
75073;SDS011;63652;51.526;5.080;2023-04-06T12:22:05;17.98;;;9.30;;
75073;SDS011;63652;51.526;5.080;2023-04-06T12:24:31;16.05;;;8.75;;
75073;SDS011;63652;51.526;5.080;2023-04-06T12:26:56;17.60;;;8.57;;
75073;SDS011;63652;51.526;5.080;2023-04-06T12:29:22;18.30;;;8.52;;
75073;SDS011;63652;51.526;5.080;2023-04-06T12:31:49;17.73;;;8.40;;
75073;SDS011;63652;51.526;5.080;2023-04-06T12:34:16;17.60;;;9.32;;
75073;SDS011;63652;51.526;5.080;2023-04-06T12:36:41;22.05;;;8.73;;
75073;SDS011;63652;51.526;5.080;2023-04-06T12:39:07;18.67;;;9.18;;
75073;SDS011;63652;51.526;5.080;2023-04-06T12:41:32;18.90;;;9.52;;
75073;SDS011;63652;51.526;5.080;2023-04-06T12:43:58;18.58;;;10.40;;
75073;SDS011;63652;51.526;5.080;2023-04-06T12:46:24;20.73;;;11.98;;
75073;SDS011;63652;51.526;5.080;2023-04-06T12:48:50;23.33;;;11.05;;
75073;SDS011;63652;51.526;5.080;2023-04-06T12:51:18;20.25;;;9.57;;
75073;SDS011;63652;51.526;5.080;2023-04-06T12:53:44;21.23;;;10.38;;
75073;SDS011;63652;51.526;5.080;2023-04-06T12:56:11;19.17;;;10.52;;
75073;SDS011;63652;51.526;5.080;2023-04-06T12:58:41;18.50;;;9.07;;
75073;SDS011;63652;51.526;5.080;2023-04-06T13:01:07;18.67;;;10.25;;
75073;SDS011;63652;51.526;5.080;2023-04-06T13:03:33;19.55;;;9.88;;
75073;SDS011;63652;51.526;5.080;2023-04-06T13:05:59;19.95;;;10.25;;
75073;SDS011;63652;51.526;5.080;2023-04-06T13:08:25;22.55;;;10.20;;
75073;SDS011;63652;51.526;5.080;2023-04-06T13:10:51;20.60;;;9.90;;
75073;SDS011;63652;51.526;5.080;2023-04-06T13:13:24;18.52;;;9.45;;
75073;SDS011;63652;51.526;5.080;2023-04-06T13:15:51;20.58;;;9.82;;
75073;SDS011;63652;51.526;5.080;2023-04-06T13:18:17;18.88;;;10.93;;
75073;SDS011;63652;51.526;5.080;2023-04-06T13:20:43;20.73;;;10.43;;
75073;SDS011;63652;51.526;5.080;2023-04-06T13:23:08;20.23;;;10.57;;
75073;SDS011;63652;51.526;5.080;2023-04-06T13:25:34;20.55;;;9.57;;
75073;SDS011;63652;51.526;5.080;2023-04-06T13:27:59;20.17;;;10.43;;
75073;SDS011;63652;51.526;5.080;2023-04-06T13:30:25;23.95;;;11.82;;
75073;SDS011;63652;51.526;5.080;2023-04-06T13:32:50;22.42;;;11.07;;
75073;SDS011;63652;51.526;5.080;2023-04-06T13:35:16;20.23;;;9.55;;
75073;SDS011;63652;51.526;5.080;2023-04-06T13:37:41;19.75;;;9.90;;
75073;SDS011;63652;51.526;5.080;2023-04-06T13:40:07;22.20;;;10.23;;
75073;SDS011;63652;51.526;5.080;2023-04-06T13:42:33;19.63;;;9.93;;
75073;SDS011;63652;51.526;5.080;2023-04-06T13:45:00;22.63;;;10.73;;
75073;SDS011;63652;51.526;5.080;2023-04-06T13:47:26;20.23;;;9.73;;
75073;SDS011;63652;51.526;5.080;2023-04-06T13:49:52;27.00;;;11.20;;
75073;SDS011;63652;51.526;5.080;2023-04-06T13:52:18;22.77;;;11.30;;
75073;SDS011;63652;51.526;5.080;2023-04-06T13:54:44;22.05;;;11.13;;
75073;SDS011;63652;51.526;5.080;2023-04-06T13:57:10;19.63;;;9.27;;
75073;SDS011;63652;51.526;5.080;2023-04-06T13:59:36;24.30;;;11.18;;
75073;SDS011;63652;51.526;5.080;2023-04-06T14:02:02;21.15;;;11.15;;
75073;SDS011;63652;51.526;5.080;2023-04-06T14:04:29;20.00;;;10.15;;
75073;SDS011;63652;51.526;5.080;2023-04-06T14:06:55;22.13;;;11.60;;
75073;SDS011;63652;51.526;5.080;2023-04-06T14:09:20;23.65;;;11.63;;
75073;SDS011;63652;51.526;5.080;2023-04-06T14:11:46;23.50;;;11.35;;
75073;SDS011;63652;51.526;5.080;2023-04-06T14:14:11;25.20;;;11.73;;
75073;SDS011;63652;51.526;5.080;2023-04-06T14:16:37;24.95;;;12.45;;
75073;SDS011;63652;51.526;5.080;2023-04-06T14:19:03;24.30;;;11.75;;
75073;SDS011;63652;51.526;5.080;2023-04-06T14:21:28;25.23;;;11.73;;
75073;SDS011;63652;51.526;5.080;2023-04-06T14:23:53;24.83;;;12.38;;
75073;SDS011;63652;51.526;5.080;2023-04-06T14:26:20;21.48;;;11.52;;
75073;SDS011;63652;51.526;5.080;2023-04-06T14:28:45;26.23;;;11.57;;
75073;SDS011;63652;51.526;5.080;2023-04-06T14:31:14;21.38;;;11.40;;